Time;durP1;ratioP1;P1;durP2;ratioP2;P2;SDS_P1;SDS_P2;PMS_P1;PMS_P2;Temp;Humidity;BMP_temperature;BMP_pressure;BME280_temperature;BME280_humidity;BME280_pressure;Samples;Min_cycle;Max_cycle;Signal;HPM_P1;HPM_P2
2021/12/26 00:01:18;;;;;;;4.00;1.67;;;;;;;;;;4858748;29;20487;-85
2021/12/26 00:03:45;;;;;;;3.35;1.58;;;;;;;;;;4857818;29;20397;-86
2021/12/26 00:06:15;;;;;;;3.20;1.45;;;;;;;;;;4858632;29;20025;-85
2021/12/26 00:08:42;;;;;;;4.53;1.85;;;;;;;;;;4873211;29;20083;-85
2021/12/26 00:11:08;;;;;;;3.20;1.50;;;;;;;;;;4875150;29;20040;-85
2021/12/26 00:13:34;;;;;;;4.57;1.80;;;;;;;;;;4859105;29;20057;-85
2021/12/26 00:16:01;;;;;;;3.88;1.60;;;;;;;;;;4851922;29;20029;-85
2021/12/26 00:18:26;;;;;;;3.30;1.58;;;;;;;;;;4870502;29;20673;-85
2021/12/26 00:20:52;;;;;;;3.45;1.90;;;;;;;;;;4861600;29;20043;-85
2021/12/26 00:23:18;;;;;;;3.00;1.73;;;;;;;;;;4861644;29;20040;-84
2021/12/26 00:25:44;;;;;;;3.83;1.60;;;;;;;;;;4863949;29;20037;-86
2021/12/26 00:28:11;;;;;;;4.75;1.60;;;;;;;;;;4862628;29;20037;-85
2021/12/26 00:30:36;;;;;;;3.13;1.60;;;;;;;;;;4853337;29;20054;-85
2021/12/26 00:33:02;;;;;;;3.72;1.95;;;;;;;;;;4856642;29;20045;-85
2021/12/26 00:35:27;;;;;;;5.85;1.85;;;;;;;;;;4856208;29;20052;-85
2021/12/26 00:37:53;;;;;;;4.55;2.00;;;;;;;;;;4860064;29;20179;-85
2021/12/26 00:40:21;;;;;;;4.65;1.85;;;;;;;;;;4855346;29;20044;-84
2021/12/26 00:42:48;;;;;;;4.57;1.80;;;;;;;;;;4852363;29;20409;-85
2021/12/26 00:45:13;;;;;;;3.85;1.50;;;;;;;;;;4871796;29;20246;-85
2021/12/26 00:47:39;;;;;;;4.65;2.08;;;;;;;;;;4858631;29;20592;-84
2021/12/26 00:50:09;;;;;;;5.53;2.20;;;;;;;;;;4873254;29;20445;-85
2021/12/26 00:52:34;;;;;;;3.40;1.65;;;;;;;;;;4859393;29;20037;-85
2021/12/26 00:55:00;;;;;;;4.07;1.80;;;;;;;;;;4858955;29;20032;-85
2021/12/26 00:57:25;;;;;;;2.75;1.50;;;;;;;;;;4858288;29;20056;-85
2021/12/26 00:59:50;;;;;;;3.92;1.90;;;;;;;;;;4860592;29;20036;-84
2021/12/26 01:02:16;;;;;;;6.20;1.88;;;;;;;;;;4857618;29;20055;-85
2021/12/26 01:04:41;;;;;;;3.03;1.65;;;;;;;;;;4858551;29;20538;-85
2021/12/26 01:07:16;;;;;;;5.07;2.00;;;;;;;;;;4860193;29;20512;-85
2021/12/26 01:09:45;;;;;;;4.00;1.98;;;;;;;;;;4859727;29;20196;-84
2021/12/26 01:12:14;;;;;;;4.72;2.03;;;;;;;;;;4873839;29;20052;-85
2021/12/26 01:14:47;;;;;;;4.22;1.70;;;;;;;;;;4859637;29;20038;-85
2021/12/26 01:17:15;;;;;;;3.03;1.80;;;;;;;;;;4855343;29;20036;-85
2021/12/26 01:19:46;;;;;;;3.65;1.88;;;;;;;;;;4856028;29;20037;-85
2021/12/26 01:22:12;;;;;;;3.80;1.65;;;;;;;;;;4858411;29;20045;-84
2021/12/26 01:24:38;;;;;;;3.25;1.58;;;;;;;;;;4860808;29;20063;-84
2021/12/26 01:27:04;;;;;;;3.30;1.63;;;;;;;;;;4855606;29;20061;-85
2021/12/26 01:29:30;;;;;;;5.30;1.83;;;;;;;;;;4857927;29;20036;-85
2021/12/26 01:31:56;;;;;;;3.88;1.75;;;;;;;;;;4855163;29;20480;-85
2021/12/26 01:34:21;;;;;;;5.70;1.80;;;;;;;;;;4857790;29;20124;-86
2021/12/26 01:36:48;;;;;;;3.45;1.70;;;;;;;;;;4874225;29;20025;-85
2021/12/26 01:39:14;;;;;;;4.63;1.92;;;;;;;;;;4861962;29;20025;-85
2021/12/26 01:41:42;;;;;;;3.63;1.50;;;;;;;;;;4860402;29;20032;-85
2021/12/26 01:44:10;;;;;;;4.70;1.90;;;;;;;;;;4863196;29;20029;-85
2021/12/26 01:46:37;;;;;;;3.17;1.58;;;;;;;;;;4872091;29;20029;-85
2021/12/26 01:49:10;;;;;;;3.03;1.70;;;;;;;;;;4866160;29;20396;-85
2021/12/26 01:51:36;;;;;;;3.45;1.75;;;;;;;;;;4858434;29;20041;-85
2021/12/26 01:54:06;;;;;;;4.68;2.00;;;;;;;;;;4880661;29;20044;-85
2021/12/26 01:56:32;;;;;;;4.03;1.77;;;;;;;;;;4865667;29;20060;-85
2021/12/26 01:58:57;;;;;;;3.88;1.83;;;;;;;;;;4862570;29;20048;-86
2021/12/26 02:01:23;;;;;;;3.05;1.58;;;;;;;;;;4864403;29;20091;-85
2021/12/26 02:03:49;;;;;;;4.75;1.90;;;;;;;;;;4860854;29;20450;-85
2021/12/26 02:06:15;;;;;;;2.85;1.63;;;;;;;;;;4865188;29;20033;-85
2021/12/26 02:08:41;;;;;;;4.22;1.83;;;;;;;;;;4861782;29;20036;-85
2021/12/26 02:11:07;;;;;;;2.95;1.60;;;;;;;;;;4859478;29;20037;-85
2021/12/26 02:13:38;;;;;;;5.10;1.95;;;;;;;;;;4862680;29;20044;-85
2021/12/26 02:16:06;;;;;;;3.05;1.55;;;;;;;;;;4872136;29;20115;-85
2021/12/26 02:18:31;;;;;;;3.67;1.65;;;;;;;;;;4865492;29;21588;-85
2021/12/26 02:28:42;;;;;;;3.88;1.77;;;;;;;;;;4873569;29;20116;-85
2021/12/26 02:31:07;;;;;;;2.95;1.73;;;;;;;;;;4858233;29;20080;-85
2021/12/26 02:33:33;;;;;;;4.50;1.85;;;;;;;;;;4860727;29;20033;-85
2021/12/26 02:35:59;;;;;;;3.42;1.60;;;;;;;;;;4860948;29;20057;-85
2021/12/26 02:38:24;;;;;;;4.03;1.88;;;;;;;;;;4860014;29;20077;-84
2021/12/26 02:40:52;;;;;;;5.78;1.85;;;;;;;;;;4860345;29;20430;-85
2021/12/26 02:43:20;;;;;;;4.15;1.85;;;;;;;;;;4874959;29;20049;-85
2021/12/26 02:45:46;;;;;;;3.67;1.92;;;;;;;;;;4866969;29;20525;-85
2021/12/26 02:48:12;;;;;;;4.35;2.10;;;;;;;;;;4856480;29;20049;-85
2021/12/26 02:50:39;;;;;;;3.90;1.80;;;;;;;;;;4861525;29;20115;-85
2021/12/26 02:53:07;;;;;;;4.18;2.00;;;;;;;;;;4860157;29;20029;-85
2021/12/26 02:55:34;;;;;;;3.38;1.75;;;;;;;;;;4868798;29;20037;-85
2021/12/26 02:58:02;;;;;;;3.78;2.03;;;;;;;;;;4865285;29;20485;-85
2021/12/26 03:00:32;;;;;;;2.58;1.42;;;;;;;;;;4868687;29;20097;-85
2021/12/26 03:03:00;;;;;;;3.67;1.65;;;;;;;;;;4866857;29;20032;-85
2021/12/26 03:05:29;;;;;;;3.15;1.63;;;;;;;;;;4863938;29;20558;-85
2021/12/26 03:07:55;;;;;;;4.68;2.20;;;;;;;;;;4863621;29;20076;-85
2021/12/26 03:10:24;;;;;;;4.28;1.92;;;;;;;;;;4868556;29;20073;-85
2021/12/26 03:12:57;;;;;;;5.45;2.10;;;;;;;;;;4857366;29;20033;-85
2021/12/26 03:15:24;;;;;;;3.20;1.80;;;;;;;;;;4855637;29;20545;-85
2021/12/26 03:17:50;;;;;;;4.30;1.73;;;;;;;;;;4860635;29;20040;-85
2021/12/26 03:20:20;;;;;;;4.00;1.95;;;;;;;;;;4858761;29;20045;-86
2021/12/26 03:22:45;;;;;;;4.80;2.00;;;;;;;;;;4854452;29;20474;-85
2021/12/26 03:25:20;;;;;;;4.25;2.03;;;;;;;;;;4851038;29;20175;-85
2021/12/26 03:27:46;;;;;;;4.90;1.92;;;;;;;;;;4856623;29;20054;-85
2021/12/26 03:30:14;;;;;;;5.30;2.35;;;;;;;;;;4852670;29;20053;-85
2021/12/26 03:32:40;;;;;;;4.10;2.10;;;;;;;;;;4852487;29;20129;-85
2021/12/26 03:35:07;;;;;;;5.53;2.22;;;;;;;;;;4857161;29;20063;-85
2021/12/26 03:37:32;;;;;;;4.90;2.20;;;;;;;;;;4858475;29;20218;-84
2021/12/26 03:39:58;;;;;;;5.97;2.00;;;;;;;;;;4855759;29;20481;-85
2021/12/26 03:42:24;;;;;;;4.28;1.90;;;;;;;;;;4857141;29;20040;-85
2021/12/26 03:44:50;;;;;;;3.47;1.80;;;;;;;;;;4860274;29;20025;-85
2021/12/26 03:47:16;;;;;;;8.93;2.20;;;;;;;;;;4854259;29;20033;-85
2021/12/26 03:49:42;;;;;;;3.97;2.10;;;;;;;;;;4859104;29;20427;-84
2021/12/26 03:52:07;;;;;;;5.22;1.98;;;;;;;;;;4855522;29;20465;-86
2021/12/26 03:54:33;;;;;;;4.45;2.00;;;;;;;;;;4856961;29;20029;-85
2021/12/26 03:56:58;;;;;;;4.45;1.95;;;;;;;;;;4860008;29;20036;-85
2021/12/26 03:59:24;;;;;;;4.63;2.13;;;;;;;;;;4858754;29;20534;-85
2021/12/26 04:01:49;;;;;;;4.72;1.80;;;;;;;;;;4858035;29;20119;-85
2021/12/26 04:04:15;;;;;;;3.28;1.75;;;;;;;;;;4859615;29;20029;-84
2021/12/26 04:06:41;;;;;;;9.48;2.40;;;;;;;;;;4855343;29;20061;-85
2021/12/26 04:09:08;;;;;;;3.97;2.08;;;;;;;;;;4854208;29;20080;-85
2021/12/26 04:11:36;;;;;;;3.45;1.90;;;;;;;;;;4850995;29;20030;-84
2021/12/26 04:14:02;;;;;;;4.07;2.00;;;;;;;;;;4857888;29;20065;-84
2021/12/26 04:16:27;;;;;;;4.13;1.98;;;;;;;;;;4856442;29;20044;-86
2021/12/26 04:18:52;;;;;;;5.90;2.10;;;;;;;;;;4854093;29;20834;-85
2021/12/26 04:21:18;;;;;;;4.60;2.03;;;;;;;;;;4850743;29;20092;-85
2021/12/26 04:23:43;;;;;;;4.03;2.20;;;;;;;;;;4854182;29;20029;-84
2021/12/26 04:26:08;;;;;;;5.35;2.30;;;;;;;;;;4857716;29;20043;-84
2021/12/26 04:28:34;;;;;;;4.28;2.13;;;;;;;;;;4856722;29;20042;-84
2021/12/26 04:30:59;;;;;;;4.57;2.22;;;;;;;;;;4854736;29;20022;-85
2021/12/26 04:33:24;;;;;;;3.78;2.00;;;;;;;;;;4854580;29;20059;-85
2021/12/26 04:35:50;;;;;;;4.07;2.35;;;;;;;;;;4857497;29;20033;-86
2021/12/26 04:38:16;;;;;;;3.97;1.80;;;;;;;;;;4857521;29;20654;-85
2021/12/26 04:40:41;;;;;;;3.70;1.80;;;;;;;;;;4859586;29;20334;-85
2021/12/26 04:43:07;;;;;;;4.45;2.13;;;;;;;;;;4854706;29;20041;-85
2021/12/26 04:45:32;;;;;;;9.07;2.13;;;;;;;;;;4858538;29;20097;-85
2021/12/26 04:48:01;;;;;;;4.40;2.22;;;;;;;;;;4858147;29;20042;-85
2021/12/26 04:50:27;;;;;;;4.70;2.38;;;;;;;;;;4853327;29;20421;-84
2021/12/26 04:52:53;;;;;;;4.68;2.15;;;;;;;;;;4855746;29;20029;-84
2021/12/26 04:55:22;;;;;;;4.95;2.33;;;;;;;;;;4858855;29;20362;-85
2021/12/26 04:57:48;;;;;;;3.75;2.05;;;;;;;;;;4851896;29;20513;-85
2021/12/26 05:00:17;;;;;;;3.80;1.80;;;;;;;;;;4858371;29;20025;-84
2021/12/26 05:02:43;;;;;;;4.90;2.10;;;;;;;;;;4853710;29;20484;-85
2021/12/26 05:05:10;;;;;;;6.15;1.95;;;;;;;;;;4866858;29;20040;-85
2021/12/26 05:07:37;;;;;;;6.55;2.00;;;;;;;;;;4856427;29;20037;-85
2021/12/26 05:10:03;;;;;;;5.43;2.20;;;;;;;;;;4857276;29;20050;-85
2021/12/26 05:12:29;;;;;;;5.18;2.28;;;;;;;;;;4856569;29;20045;-85
2021/12/26 05:14:54;;;;;;;5.18;2.20;;;;;;;;;;4850592;29;20025;-84
2021/12/26 05:17:19;;;;;;;4.28;2.13;;;;;;;;;;4859661;29;20033;-85
2021/12/26 05:19:45;;;;;;;4.35;2.25;;;;;;;;;;4854288;29;20025;-85
2021/12/26 05:22:10;;;;;;;5.18;2.30;;;;;;;;;;4855167;29;20041;-85
2021/12/26 05:24:36;;;;;;;3.38;1.65;;;;;;;;;;4859672;29;20030;-85
2021/12/26 05:27:01;;;;;;;3.95;1.90;;;;;;;;;;4857145;29;20129;-85
2021/12/26 05:29:27;;;;;;;4.28;2.03;;;;;;;;;;4858013;29;20033;-85
2021/12/26 05:31:53;;;;;;;3.47;1.80;;;;;;;;;;4859232;29;20048;-85
2021/12/26 05:34:19;;;;;;;3.92;1.92;;;;;;;;;;4856807;29;20049;-84
2021/12/26 05:36:44;;;;;;;4.00;2.10;;;;;;;;;;4862053;29;20509;-84
2021/12/26 05:39:10;;;;;;;4.55;2.00;;;;;;;;;;4859639;29;20037;-85
2021/12/26 05:41:35;;;;;;;5.57;2.47;;;;;;;;;;4861252;29;20044;-85
2021/12/26 05:44:01;;;;;;;5.38;2.22;;;;;;;;;;4861080;29;20106;-85
2021/12/26 05:46:26;;;;;;;4.53;2.00;;;;;;;;;;4857265;29;20037;-85
2021/12/26 05:48:51;;;;;;;4.97;2.85;;;;;;;;;;4861083;29;20069;-84
2021/12/26 05:51:17;;;;;;;4.43;2.00;;;;;;;;;;4857222;29;20041;-85
2021/12/26 05:53:42;;;;;;;4.00;2.10;;;;;;;;;;4859038;29;20029;-85
2021/12/26 05:56:08;;;;;;;5.00;2.22;;;;;;;;;;4856321;29;20034;-86
2021/12/26 05:58:34;;;;;;;4.57;2.15;;;;;;;;;;4868227;29;20116;-85
2021/12/26 06:01:00;;;;;;;4.07;2.17;;;;;;;;;;4860716;29;20034;-85
2021/12/26 06:03:26;;;;;;;4.47;2.03;;;;;;;;;;4859154;29;20030;-85
2021/12/26 06:05:51;;;;;;;5.05;2.30;;;;;;;;;;4856107;29;20040;-85
2021/12/26 06:08:17;;;;;;;4.97;2.28;;;;;;;;;;4855926;29;20033;-85
2021/12/26 06:10:43;;;;;;;4.18;1.80;;;;;;;;;;4860351;29;20061;-85
2021/12/26 06:13:08;;;;;;;4.57;2.22;;;;;;;;;;4861841;29;20036;-85
2021/12/26 06:15:34;;;;;;;4.65;2.35;;;;;;;;;;4856954;29;20384;-85
2021/12/26 06:18:00;;;;;;;5.72;2.80;;;;;;;;;;4856315;29;20093;-85
2021/12/26 06:20:25;;;;;;;4.10;2.00;;;;;;;;;;4861437;29;20410;-85
2021/12/26 06:22:50;;;;;;;4.28;2.25;;;;;;;;;;4857177;29;21971;-85
2021/12/26 06:25:17;;;;;;;3.92;2.10;;;;;;;;;;4859902;29;20708;-84
2021/12/26 06:27:42;;;;;;;4.07;2.10;;;;;;;;;;4859155;29;20021;-85
2021/12/26 06:30:10;;;;;;;5.05;2.65;;;;;;;;;;4859604;29;20022;-84
2021/12/26 06:32:35;;;;;;;4.88;2.20;;;;;;;;;;4861578;29;20493;-85
2021/12/26 06:35:01;;;;;;;6.80;2.17;;;;;;;;;;4858699;29;20040;-84
2021/12/26 06:37:30;;;;;;;4.35;2.47;;;;;;;;;;4865862;29;20045;-85
2021/12/26 06:39:56;;;;;;;5.10;2.22;;;;;;;;;;4859226;29;20029;-85
2021/12/26 06:42:22;;;;;;;4.47;2.03;;;;;;;;;;4859889;29;20029;-84
2021/12/26 06:44:47;;;;;;;3.92;2.20;;;;;;;;;;4864859;29;20032;-85
2021/12/26 06:47:12;;;;;;;5.05;2.22;;;;;;;;;;4862199;29;20036;-85
2021/12/26 06:49:38;;;;;;;4.88;2.50;;;;;;;;;;4861037;29;20025;-85
2021/12/26 06:52:05;;;;;;;4.22;2.28;;;;;;;;;;4858327;29;20029;-85
2021/12/26 06:54:31;;;;;;;6.13;2.53;;;;;;;;;;4857010;29;20044;-85
2021/12/26 06:56:56;;;;;;;5.07;2.20;;;;;;;;;;4863519;29;20033;-84
2021/12/26 06:59:22;;;;;;;4.75;2.20;;;;;;;;;;4860529;29;20033;-85
2021/12/26 07:01:47;;;;;;;4.88;2.15;;;;;;;;;;4856670;29;20030;-85
2021/12/26 07:04:12;;;;;;;5.65;2.50;;;;;;;;;;4859977;29;20386;-85
2021/12/26 07:06:38;;;;;;;5.05;2.30;;;;;;;;;;4855642;29;20034;-84
2021/12/26 07:09:04;;;;;;;4.72;2.50;;;;;;;;;;4857265;29;20085;-85
2021/12/26 07:11:29;;;;;;;5.10;2.33;;;;;;;;;;4855430;29;20553;-85
2021/12/26 07:13:56;;;;;;;3.90;2.00;;;;;;;;;;4848505;29;20056;-84
2021/12/26 07:16:23;;;;;;;4.47;2.42;;;;;;;;;;4858833;29;20086;-84
2021/12/26 07:18:49;;;;;;;5.72;2.55;;;;;;;;;;4855815;29;20509;-85
2021/12/26 07:21:14;;;;;;;3.63;1.98;;;;;;;;;;4871311;29;20034;-85
2021/12/26 07:23:40;;;;;;;4.55;2.40;;;;;;;;;;4854684;29;20039;-85
2021/12/26 07:26:17;;;;;;;5.07;2.10;;;;;;;;;;4860395;29;20477;-84
2021/12/26 07:28:43;;;;;;;6.45;2.50;;;;;;;;;;4857502;29;20121;-85
2021/12/26 07:31:09;;;;;;;5.20;2.20;;;;;;;;;;4856862;29;20120;-85
2021/12/26 07:33:34;;;;;;;4.35;2.30;;;;;;;;;;4854498;29;20040;-85
2021/12/26 07:35:59;;;;;;;4.40;2.10;;;;;;;;;;4860500;29;20029;-85
2021/12/26 07:38:25;;;;;;;3.83;1.60;;;;;;;;;;4860506;29;20041;-84
2021/12/26 07:40:50;;;;;;;3.67;1.92;;;;;;;;;;4855895;29;20029;-84
2021/12/26 07:43:16;;;;;;;4.95;2.55;;;;;;;;;;4856370;29;20057;-85
2021/12/26 07:45:41;;;;;;;4.38;2.45;;;;;;;;;;4857733;29;20105;-85
2021/12/26 07:48:07;;;;;;;5.05;2.63;;;;;;;;;;4857990;29;20026;-84
2021/12/26 07:50:32;;;;;;;4.30;2.20;;;;;;;;;;4859941;29;20043;-85
2021/12/26 07:53:06;;;;;;;4.63;2.40;;;;;;;;;;4854704;29;20393;-84
2021/12/26 07:55:31;;;;;;;5.65;2.80;;;;;;;;;;4862014;29;20037;-85
2021/12/26 07:57:56;;;;;;;5.07;2.08;;;;;;;;;;4860443;29;20475;-85
2021/12/26 08:00:22;;;;;;;4.28;2.40;;;;;;;;;;4853585;29;20025;-84
2021/12/26 08:02:48;;;;;;;5.78;2.17;;;;;;;;;;4855993;29;20446;-85
2021/12/26 08:05:14;;;;;;;4.72;2.38;;;;;;;;;;4856312;29;20374;-85
2021/12/26 08:07:40;;;;;;;5.85;2.58;;;;;;;;;;4858735;29;20540;-84
2021/12/26 08:10:07;;;;;;;5.70;2.50;;;;;;;;;;4872889;29;20132;-85
2021/12/26 08:12:32;;;;;;;4.57;2.35;;;;;;;;;;4859653;29;20528;-84
2021/12/26 08:14:59;;;;;;;5.13;2.17;;;;;;;;;;4855358;29;20026;-84
2021/12/26 08:17:25;;;;;;;4.38;2.33;;;;;;;;;;4865558;29;20028;-84
2021/12/26 08:19:50;;;;;;;4.40;2.22;;;;;;;;;;4858860;29;20545;-84
2021/12/26 08:22:15;;;;;;;4.32;2.22;;;;;;;;;;4856249;29;21885;-84
2021/12/26 08:24:41;;;;;;;4.88;2.35;;;;;;;;;;4851891;29;20017;-86
2021/12/26 08:27:06;;;;;;;4.38;2.30;;;;;;;;;;4856645;29;20108;-86
2021/12/26 08:29:31;;;;;;;6.40;2.30;;;;;;;;;;4854094;29;20045;-85
2021/12/26 08:31:59;;;;;;;5.88;2.70;;;;;;;;;;4852115;29;20032;-85
2021/12/26 08:34:25;;;;;;;4.68;2.30;;;;;;;;;;4856419;29;20080;-85
2021/12/26 08:37:01;;;;;;;4.28;2.22;;;;;;;;;;4859137;29;20078;-85
2021/12/26 08:39:29;;;;;;;4.78;2.58;;;;;;;;;;4852772;29;20057;-85
2021/12/26 08:41:55;;;;;;;4.97;2.30;;;;;;;;;;4852236;29;20033;-85
2021/12/26 08:44:21;;;;;;;4.65;2.42;;;;;;;;;;4858912;29;20037;-85
2021/12/26 08:46:47;;;;;;;5.25;2.33;;;;;;;;;;4861087;29;20491;-84
2021/12/26 08:49:13;;;;;;;4.95;2.42;;;;;;;;;;4856629;29;20041;-86
2021/12/26 08:51:39;;;;;;;5.43;2.85;;;;;;;;;;4853160;29;20610;-86
2021/12/26 08:54:04;;;;;;;6.03;3.00;;;;;;;;;;4853027;29;20025;-86
2021/12/26 08:56:30;;;;;;;6.63;2.80;;;;;;;;;;4857058;29;20166;-86
2021/12/26 08:58:55;;;;;;;5.25;2.75;;;;;;;;;;4851720;29;20117;-85
2021/12/26 09:01:21;;;;;;;5.57;2.70;;;;;;;;;;4855478;29;20025;-85
2021/12/26 09:03:46;;;;;;;6.45;2.83;;;;;;;;;;4852548;29;20493;-84
2021/12/26 09:06:12;;;;;;;6.07;2.67;;;;;;;;;;4854926;29;20662;-85
2021/12/26 09:08:38;;;;;;;5.38;2.50;;;;;;;;;;4852629;29;20064;-85
2021/12/26 09:11:03;;;;;;;4.50;2.53;;;;;;;;;;4862734;29;20734;-85
2021/12/26 09:13:29;;;;;;;5.70;2.60;;;;;;;;;;4880852;29;20048;-84
2021/12/26 09:15:54;;;;;;;4.45;2.50;;;;;;;;;;4855740;29;20033;-85
2021/12/26 09:18:20;;;;;;;5.05;2.60;;;;;;;;;;4862333;29;20173;-85
2021/12/26 09:20:48;;;;;;;4.93;2.25;;;;;;;;;;4865905;29;20081;-85
2021/12/26 09:26:14;;;;;;;6.47;3.05;;;;;;;;;;4842103;29;20041;-85
2021/12/26 09:28:42;;;;;;;5.13;2.53;;;;;;;;;;4864701;29;20044;-85
2021/12/26 09:31:07;;;;;;;5.47;2.60;;;;;;;;;;4867015;29;20030;-85
2021/12/26 09:33:33;;;;;;;6.97;3.03;;;;;;;;;;4864953;29;20029;-85
2021/12/26 09:36:10;;;;;;;6.65;2.78;;;;;;;;;;4864631;29;20112;-85
2021/12/26 09:38:39;;;;;;;6.85;2.72;;;;;;;;;;4859365;29;20033;-84
2021/12/26 09:41:10;;;;;;;4.68;2.72;;;;;;;;;;4863709;29;20036;-84
2021/12/26 09:43:36;;;;;;;4.25;2.30;;;;;;;;;;4861388;29;20128;-84
2021/12/26 09:46:01;;;;;;;5.00;2.75;;;;;;;;;;4861491;29;20115;-85
2021/12/26 09:48:26;;;;;;;5.57;2.72;;;;;;;;;;4857922;29;20041;-84
2021/12/26 09:50:52;;;;;;;6.15;2.80;;;;;;;;;;4861107;29;20029;-85
2021/12/26 09:53:18;;;;;;;5.00;2.50;;;;;;;;;;4865998;29;20028;-85
2021/12/26 09:55:43;;;;;;;6.00;2.70;;;;;;;;;;4866123;29;20060;-85
2021/12/26 09:58:08;;;;;;;5.43;2.55;;;;;;;;;;4868887;29;20093;-85
2021/12/26 10:00:38;;;;;;;6.10;2.90;;;;;;;;;;4864097;29;20036;-84
2021/12/26 10:03:17;;;;;;;6.28;2.78;;;;;;;;;;4867271;29;20032;-85
2021/12/26 10:06:13;;;;;;;7.03;2.65;;;;;;;;;;4863720;29;20081;-85
2021/12/26 10:08:54;;;;;;;4.93;2.65;;;;;;;;;;4861170;29;20060;-85
2021/12/26 10:11:22;;;;;;;6.55;3.00;;;;;;;;;;4878858;29;20118;-85
2021/12/26 10:13:51;;;;;;;5.22;2.72;;;;;;;;;;4878369;29;20088;-85
2021/12/26 10:16:19;;;;;;;5.10;2.63;;;;;;;;;;4872530;29;20047;-85
2021/12/26 10:18:46;;;;;;;7.13;2.80;;;;;;;;;;4862301;29;20115;-84
2021/12/26 10:21:24;;;;;;;6.10;2.90;;;;;;;;;;4875834;29;20037;-84
2021/12/26 10:23:51;;;;;;;6.10;2.88;;;;;;;;;;4861777;29;20037;-85
2021/12/26 10:26:19;;;;;;;7.22;2.97;;;;;;;;;;4862064;29;20407;-85
2021/12/26 10:29:22;;;;;;;6.78;2.72;;;;;;;;;;4877190;29;20117;-85
2021/12/26 10:31:55;;;;;;;4.22;2.35;;;;;;;;;;4870371;29;20056;-85
2021/12/26 10:34:26;;;;;;;5.60;3.15;;;;;;;;;;4864134;29;20507;-85
2021/12/26 10:36:53;;;;;;;6.22;3.45;;;;;;;;;;4871671;29;20033;-86
2021/12/26 10:39:25;;;;;;;5.10;3.15;;;;;;;;;;4863702;29;20668;-85
2021/12/26 10:42:03;;;;;;;6.85;3.10;;;;;;;;;;4860630;29;20028;-84
2021/12/26 10:44:38;;;;;;;4.70;2.70;;;;;;;;;;4878836;29;20021;-85
2021/12/26 10:47:11;;;;;;;6.88;3.33;;;;;;;;;;4853481;29;20040;-85
2021/12/26 10:49:41;;;;;;;;;;;;;;;;;;4849591;29;20424;-85
2021/12/26 10:52:17;;;;;;;6.03;3.03;;;;;;;;;;4855029;29;19927;-85
2021/12/26 10:54:48;;;;;;;7.85;3.22;;;;;;;;;;4857950;29;20051;-85
2021/12/26 10:57:19;;;;;;;7.65;3.38;;;;;;;;;;4861443;29;20480;-85
2021/12/26 10:59:48;;;;;;;9.23;3.55;;;;;;;;;;4859077;29;20048;-85
2021/12/26 11:02:22;;;;;;;6.80;3.45;;;;;;;;;;4851575;29;20036;-85
2021/12/26 11:05:19;;;;;;;5.47;3.28;;;;;;;;;;4862080;29;20029;-85
2021/12/26 11:07:51;;;;;;;7.63;3.97;;;;;;;;;;4856540;29;20144;-87
2021/12/26 11:10:24;;;;;;;8.32;3.75;;;;;;;;;;4876185;29;20197;-79
2021/12/26 11:12:59;;;;;;;7.45;3.75;;;;;;;;;;4859032;29;20505;-80
2021/12/26 11:15:28;;;;;;;6.82;3.65;;;;;;;;;;4867286;29;20040;-80
2021/12/26 11:18:05;;;;;;;7.47;3.70;;;;;;;;;;4865501;29;20095;-86
2021/12/26 11:20:34;;;;;;;7.05;3.95;;;;;;;;;;4856837;29;20079;-85
2021/12/26 11:23:09;;;;;;;8.82;4.35;;;;;;;;;;4855147;29;20056;-84
2021/12/26 11:25:34;;;;;;;7.75;3.88;;;;;;;;;;4856415;29;20067;-85
2021/12/26 11:28:01;;;;;;;7.03;3.75;;;;;;;;;;4856907;29;20065;-84
2021/12/26 11:30:26;;;;;;;8.27;3.88;;;;;;;;;;4855335;29;20033;-85
2021/12/26 11:32:52;;;;;;;8.25;4.45;;;;;;;;;;4862132;29;20034;-83
2021/12/26 11:35:17;;;;;;;8.98;4.35;;;;;;;;;;4859493;29;20120;-83
2021/12/26 11:37:43;;;;;;;8.10;4.22;;;;;;;;;;4855589;29;20037;-85
2021/12/26 11:40:11;;;;;;;10.07;4.50;;;;;;;;;;4863946;29;20032;-84
2021/12/26 11:42:45;;;;;;;8.35;4.22;;;;;;;;;;4882582;29;20120;-84
2021/12/26 11:45:31;;;;;;;10.80;4.20;;;;;;;;;;4859640;29;20106;-84
2021/12/26 11:48:23;;;;;;;9.27;4.50;;;;;;;;;;4876366;29;20115;-83
2021/12/26 11:51:12;;;;;;;9.48;4.47;;;;;;;;;;4864624;29;20071;-84
2021/12/26 11:53:53;;;;;;;10.55;4.43;;;;;;;;;;4857692;29;20717;-85
2021/12/26 11:56:51;;;;;;;9.43;4.22;;;;;;;;;;4863656;29;20037;-84
2021/12/26 12:00:11;;;;;;;7.80;4.40;;;;;;;;;;4826726;29;20400;-85
2021/12/26 12:03:02;;;;;;;7.50;4.43;;;;;;;;;;4859262;29;20077;-85
2021/12/26 12:08:34;;;;;;;8.40;4.50;;;;;;;;;;4874997;29;20059;-84
2021/12/26 12:11:04;;;;;;;7.35;4.00;;;;;;;;;;4843524;29;20049;-82
2021/12/26 12:14:26;;;;;;;8.02;4.40;;;;;;;;;;4863090;29;20040;-85
2021/12/26 12:17:45;;;;;;;9.32;4.93;;;;;;;;;;4831503;29;20040;-84
2021/12/26 12:20:36;;;;;;;10.07;5.07;;;;;;;;;;4796695;29;20094;-86
2021/12/26 12:23:07;;;;;;;9.25;5.07;;;;;;;;;;4811631;29;20048;-84
2021/12/26 12:25:36;;;;;;;9.70;4.85;;;;;;;;;;4871484;29;20036;-83
2021/12/26 12:28:17;;;;;;;9.65;5.00;;;;;;;;;;4876796;29;20028;-84
2021/12/26 12:31:09;;;;;;;11.95;5.43;;;;;;;;;;4860582;29;20131;-85
2021/12/26 12:33:38;;;;;;;11.00;5.30;;;;;;;;;;4876075;29;20048;-83
2021/12/26 12:36:13;;;;;;;10.13;4.85;;;;;;;;;;4858252;29;20489;-85
2021/12/26 12:38:41;;;;;;;9.88;5.70;;;;;;;;;;4854806;29;20132;-83
2021/12/26 12:41:38;;;;;;;10.30;5.55;;;;;;;;;;4854613;29;20596;-86
2021/12/26 12:44:44;;;;;;;9.20;5.35;;;;;;;;;;4873676;29;20629;-83
2021/12/26 12:47:19;;;;;;;10.07;5.50;;;;;;;;;;4857197;29;20136;-83
2021/12/26 12:50:13;;;;;;;11.20;5.45;;;;;;;;;;4859296;29;20040;-85
2021/12/26 12:52:45;;;;;;;9.13;5.22;;;;;;;;;;4874184;29;20056;-83
2021/12/26 12:55:17;;;;;;;9.70;5.35;;;;;;;;;;4859145;29;20120;-85
2021/12/26 12:58:00;;;;;;;10.75;5.93;;;;;;;;;;4876624;29;20635;-85
2021/12/26 13:00:47;;;;;;;10.15;4.90;;;;;;;;;;4856864;29;20488;-83
2021/12/26 13:03:15;;;;;;;10.85;5.65;;;;;;;;;;4857310;29;20045;-85
2021/12/26 13:05:43;;;;;;;9.18;4.85;;;;;;;;;;4858215;29;20085;-87
2021/12/26 13:08:15;;;;;;;9.93;5.57;;;;;;;;;;4845212;29;20049;-86
2021/12/26 13:10:58;;;;;;;9.52;5.45;;;;;;;;;;4840264;29;20086;-86
2021/12/26 13:13:43;;;;;;;11.68;5.95;;;;;;;;;;4838826;29;20046;-87
2021/12/26 13:16:17;;;;;;;9.68;5.47;;;;;;;;;;4835932;29;20045;-83
2021/12/26 13:18:43;;;;;;;11.15;5.70;;;;;;;;;;4840955;29;20397;-86
2021/12/26 13:21:16;;;;;;;11.50;5.60;;;;;;;;;;4862968;29;21669;-86
2021/12/26 13:23:46;;;;;;;12.50;6.50;;;;;;;;;;4840052;29;20029;-84
2021/12/26 13:26:16;;;;;;;12.32;6.22;;;;;;;;;;4844513;29;20044;-81
2021/12/26 13:28:46;;;;;;;10.30;5.93;;;;;;;;;;4838767;29;20455;-83
2021/12/26 13:31:29;;;;;;;12.32;6.65;;;;;;;;;;4850029;29;20398;-83
2021/12/26 13:33:56;;;;;;;;;;;;;;;;;;4832481;29;20390;-84
2021/12/26 13:36:24;;;;;;;12.07;6.90;;;;;;;;;;4842135;29;19927;-86
2021/12/26 13:38:51;;;;;;;10.57;6.53;;;;;;;;;;4837478;29;20124;-83
2021/12/26 13:41:20;;;;;;;10.50;6.40;;;;;;;;;;4834403;29;20166;-84
2021/12/26 13:43:47;;;;;;;11.57;6.72;;;;;;;;;;4854112;29;20033;-86
2021/12/26 13:46:21;;;;;;;11.98;7.05;;;;;;;;;;4856892;29;20037;-87
2021/12/26 13:48:51;;;;;;;11.02;6.20;;;;;;;;;;4837744;29;20034;-89
2021/12/26 13:51:26;;;;;;;11.93;6.45;;;;;;;;;;4843697;29;20541;-83
2021/12/26 13:53:57;;;;;;;9.60;5.60;;;;;;;;;;4852094;29;20105;-85
2021/12/26 13:56:23;;;;;;;12.57;6.85;;;;;;;;;;4844083;29;20035;-86
2021/12/26 13:58:48;;;;;;;12.05;6.70;;;;;;;;;;4840521;29;20457;-85
2021/12/26 14:01:14;;;;;;;10.80;6.65;;;;;;;;;;4864194;29;20425;-83
2021/12/26 14:03:46;;;;;;;13.02;6.97;;;;;;;;;;4850574;29;20041;-86
2021/12/26 14:06:11;;;;;;;12.30;7.07;;;;;;;;;;4844857;29;20052;-83
2021/12/26 14:08:37;;;;;;;11.57;6.57;;;;;;;;;;4882698;29;20051;-84
2021/12/26 14:11:03;;;;;;;11.98;6.72;;;;;;;;;;4880897;29;20037;-88
2021/12/26 14:13:29;;;;;;;10.40;6.20;;;;;;;;;;4883578;29;20532;-90
2021/12/26 14:15:57;;;;;;;13.48;6.95;;;;;;;;;;4885882;29;20472;-88
2021/12/26 14:18:29;;;;;;;13.57;6.80;;;;;;;;;;4885297;29;20479;-90
2021/12/26 14:20:56;;;;;;;13.20;7.35;;;;;;;;;;4881589;29;20029;-88
2021/12/26 14:23:30;;;;;;;13.90;6.57;;;;;;;;;;4884057;29;20100;-85
2021/12/26 14:26:19;;;;;;;10.20;6.40;;;;;;;;;;4877788;29;20116;-86
2021/12/26 14:28:54;;;;;;;12.50;6.20;;;;;;;;;;4878801;29;20558;-83
2021/12/26 14:31:39;;;;;;;12.02;6.43;;;;;;;;;;4882561;29;20021;-84
2021/12/26 14:34:28;;;;;;;10.77;5.70;;;;;;;;;;4877738;29;20028;-83
2021/12/26 14:36:55;;;;;;;14.95;6.50;;;;;;;;;;4876119;29;20041;-85
2021/12/26 14:39:33;;;;;;;13.07;6.32;;;;;;;;;;4881644;29;20036;-82
2021/12/26 14:42:04;;;;;;;12.57;6.55;;;;;;;;;;4878551;29;20088;-89
2021/12/26 14:44:30;;;;;;;12.45;6.30;;;;;;;;;;4878464;29;20029;-86
2021/12/26 14:47:12;;;;;;;9.55;5.85;;;;;;;;;;4880296;29;20032;-83
2021/12/26 14:49:54;;;;;;;10.55;6.05;;;;;;;;;;4877006;29;20021;-83
2021/12/26 14:52:21;;;;;;;12.68;6.75;;;;;;;;;;4877828;29;20084;-83
2021/12/26 14:54:54;;;;;;;14.63;6.07;;;;;;;;;;4884067;29;20029;-89
2021/12/26 14:57:35;;;;;;;12.37;5.80;;;;;;;;;;4877340;29;20024;-89
2021/12/26 15:00:15;;;;;;;14.73;6.57;;;;;;;;;;4881408;29;20303;-86
2021/12/26 15:02:45;;;;;;;12.80;6.70;;;;;;;;;;4875922;29;20493;-87
2021/12/26 15:05:14;;;;;;;12.02;6.88;;;;;;;;;;4875868;29;20025;-86
2021/12/26 15:07:42;;;;;;;15.40;6.80;;;;;;;;;;4881633;29;20045;-83